CG78 TNCC-TNCC
Flight info
| Callsign | CG78 |
|---|---|
| Flight time | 0h 9m |
| Altitude | 300 |
| Route | SIGTO DCT MA11 DCT MA29 DCT OLITO DCT DUKSO DCT LOGLA DCT D162G DCT ELUVA |
| Aircraft | F27/M-SDFHY/C |
Departure
| Time | 2026-05-04 00:01 |
|---|---|
| Airport | Hato International Airport (TNCC) |
Arrival
| Time | 2026-05-04 00:11 |
|---|---|
| Airport | Hato International Airport (TNCC) |
| Time | Latitude | Longitude | Altitude | Speed | Heading |
|---|---|---|---|---|---|
| 2026-05-03 23:49 | 12.18611 | -68.96275 | 41 ft | 0 kts | 107° |
| 2026-05-03 23:50 | 12.18616 | -68.96290 | 41 ft | 2 kts | 111° |
| 2026-05-03 23:50 | 12.18622 | -68.96304 | 40 ft | 2 kts | 116° |
| 2026-05-03 23:50 | 12.18629 | -68.96318 | 39 ft | 2 kts | 121° |
| 2026-05-03 23:50 | 12.18638 | -68.96330 | 40 ft | 2 kts | 128° |
| 2026-05-03 23:51 | 12.18648 | -68.96343 | 41 ft | 2 kts | 130° |
| 2026-05-03 23:51 | 12.18658 | -68.96356 | 41 ft | 2 kts | 130° |
| 2026-05-03 23:51 | 12.18667 | -68.96367 | 41 ft | 0 kts | 130° |
| 2026-05-03 23:57 | 12.18667 | -68.96366 | 41 ft | 1 kts | 130° |
| 2026-05-03 23:57 | 12.18664 | -68.96364 | 38 ft | 0 kts | 217° |
| 2026-05-03 23:57 | 12.18677 | -68.96388 | 40 ft | 9 kts | 304° |
| 2026-05-03 23:57 | 12.18715 | -68.96411 | 41 ft | 5 kts | 355° |
| 2026-05-03 23:58 | 12.18733 | -68.96409 | 41 ft | 0 kts | 9° |
| 2026-05-03 23:58 | 12.18775 | -68.96402 | 38 ft | 10 kts | 355° |
| 2026-05-03 23:58 | 12.18808 | -68.96443 | 40 ft | 9 kts | 279° |
| 2026-05-03 23:58 | 12.18820 | -68.96501 | 40 ft | 9 kts | 283° |
| 2026-05-03 23:59 | 12.18838 | -68.96590 | 39 ft | 18 kts | 282° |
| 2026-05-03 23:59 | 12.18864 | -68.96721 | 39 ft | 18 kts | 284° |
| 2026-05-03 23:59 | 12.18931 | -68.96770 | 39 ft | 10 kts | 24° |
| 2026-05-03 23:59 | 12.18976 | -68.96765 | 39 ft | 7 kts | 346° |
| 2026-05-04 00:00 | 12.19058 | -68.96741 | 39 ft | 7 kts | 101° |
| 2026-05-04 00:00 | 12.19058 | -68.96740 | 39 ft | 0 kts | 101° |
| 2026-05-04 00:00 | 12.19052 | -68.96714 | 39 ft | 17 kts | 101° |
| 2026-05-04 00:01 | 12.18989 | -68.96436 | 41 ft | 63 kts | 103° |
| 2026-05-04 00:01 | 12.18882 | -68.95871 | 98 ft | 92 kts | 99° |
| 2026-05-04 00:01 | 12.18785 | -68.95201 | 345 ft | 99 kts | 83° |
| 2026-05-04 00:01 | 12.19049 | -68.94532 | 662 ft | 101 kts | 70° |
| 2026-05-04 00:02 | 12.19319 | -68.93876 | 959 ft | 102 kts | 74° |
| 2026-05-04 00:02 | 12.19578 | -68.93128 | 978 ft | 123 kts | 72° |
| 2026-05-04 00:02 | 12.19878 | -68.92256 | 907 ft | 138 kts | 73° |
| 2026-05-04 00:02 | 12.20213 | -68.91315 | 845 ft | 141 kts | 72° |
| 2026-05-04 00:03 | 12.20546 | -68.90376 | 831 ft | 142 kts | 73° |
| 2026-05-04 00:03 | 12.20877 | -68.89408 | 845 ft | 146 kts | 73° |
| 2026-05-04 00:03 | 12.21208 | -68.88402 | 758 ft | 153 kts | 73° |
| 2026-05-04 00:03 | 12.21535 | -68.87472 | 582 ft | 152 kts | 74° |
| 2026-05-04 00:04 | 12.21911 | -68.86360 | 123 ft | 179 kts | 72° |
| 2026-05-04 00:04 | 12.22307 | -68.85147 | 93 ft | 177 kts | 73° |
| 2026-05-04 00:04 | 12.22687 | -68.83978 | 82 ft | 175 kts | 73° |
| 2026-05-04 00:04 | 12.23072 | -68.82809 | 69 ft | 172 kts | 73° |
| 2026-05-04 00:05 | 12.23454 | -68.81654 | 65 ft | 171 kts | 73° |
| 2026-05-04 00:05 | 12.23836 | -68.80510 | 69 ft | 169 kts | 73° |
| 2026-05-04 00:05 | 12.24212 | -68.79377 | 68 ft | 168 kts | 73° |
| 2026-05-04 00:05 | 12.24590 | -68.78255 | 63 ft | 167 kts | 73° |
| 2026-05-04 00:06 | 12.24968 | -68.77136 | 67 ft | 166 kts | 73° |
| 2026-05-04 00:06 | 12.25344 | -68.76018 | 69 ft | 165 kts | 73° |
| 2026-05-04 00:06 | 12.25720 | -68.74904 | 70 ft | 166 kts | 73° |
| 2026-05-04 00:06 | 12.26106 | -68.73773 | 73 ft | 169 kts | 73° |
| 2026-05-04 00:07 | 12.26490 | -68.72646 | 62 ft | 167 kts | 73° |
| 2026-05-04 00:07 | 12.26941 | -68.71559 | 48 ft | 169 kts | 58° |
| 2026-05-04 00:07 | 12.27932 | -68.70936 | 54 ft | 179 kts | 17° |
| 2026-05-04 00:07 | 12.29171 | -68.71187 | 62 ft | 192 kts | 334° |
| 2026-05-04 00:08 | 12.30008 | -68.72252 | 68 ft | 199 kts | 292° |
| 2026-05-04 00:08 | 12.30016 | -68.73652 | 83 ft | 198 kts | 253° |
| 2026-05-04 00:08 | 12.29573 | -68.74985 | 101 ft | 198 kts | 249° |
| 2026-05-04 00:08 | 12.29144 | -68.76324 | 91 ft | 198 kts | 250° |
| 2026-05-04 00:09 | 12.28711 | -68.77665 | 87 ft | 198 kts | 248° |
| 2026-05-04 00:09 | 12.28235 | -68.78969 | 86 ft | 198 kts | 247° |
| 2026-05-04 00:09 | 12.27750 | -68.80282 | 84 ft | 197 kts | 247° |
| 2026-05-04 00:09 | 12.27265 | -68.81594 | 84 ft | 197 kts | 247° |
| 2026-05-04 00:10 | 12.26780 | -68.82904 | 83 ft | 197 kts | 247° |
| 2026-05-04 00:10 | 12.26293 | -68.84208 | 87 ft | 196 kts | 247° |
| 2026-05-04 00:10 | 12.25804 | -68.85507 | 82 ft | 193 kts | 246° |
| 2026-05-04 00:10 | 12.25334 | -68.86748 | 66 ft | 182 kts | 247° |
| 2026-05-04 00:11 | 12.24914 | -68.87856 | 18 ft | 148 kts | 246° |
| 2026-05-04 00:11 | 12.24687 | -68.88385 | 418 ft | 0 kts | 242° |
| 2026-05-04 00:11 | 12.24464 | -68.88835 | 987 ft | 134 kts | 242° |
| 2026-05-04 00:11 | 12.24059 | -68.89887 | 571 ft | 166 kts | 247° |
| 2026-05-04 00:12 | 12.23669 | -68.90997 | 461 ft | 165 kts | 248° |
| 2026-05-04 00:12 | 12.23324 | -68.91952 | 469 ft | 158 kts | 251° |
| 2026-05-04 00:12 | 12.22969 | -68.93037 | 412 ft | 153 kts | 252° |
| 2026-05-04 00:12 | 12.22662 | -68.94063 | 370 ft | 147 kts | 251° |
| 2026-05-04 00:13 | 12.22383 | -68.95077 | 278 ft | 153 kts | 252° |
| 2026-05-04 00:13 | 12.21937 | -68.96029 | 238 ft | 146 kts | 225° |
| 2026-05-04 00:13 | 12.21160 | -68.96651 | 231 ft | 132 kts | 197° |
| 2026-05-04 00:13 | 12.20324 | -68.96773 | 214 ft | 117 kts | 162° |
| 2026-05-04 00:14 | 12.19606 | -68.96518 | 197 ft | 107 kts | 145° |
| 2026-05-04 00:14 | 12.19151 | -68.95989 | 102 ft | 97 kts | 101° |
| 2026-05-04 00:14 | 12.19031 | -68.95461 | 142 ft | 0 kts | 111° |
| 2026-05-04 00:14 | 12.18913 | -68.95098 | 100 ft | 0 kts | 96° |
| 2026-05-04 00:15 | 12.18892 | -68.94581 | 139 ft | 106 kts | 92° |
| 2026-05-04 00:15 | 12.18888 | -68.94056 | 348 ft | 107 kts | 90° |
| 2026-05-04 00:15 | 12.18919 | -68.93284 | 389 ft | 105 kts | 86° |
| 2026-05-04 00:15 | 12.18932 | -68.92536 | 298 ft | 109 kts | 94° |
| 2026-05-04 00:16 | 12.18742 | -68.91794 | 260 ft | 106 kts | 109° |
| 2026-05-04 00:16 | 12.18435 | -68.91128 | 195 ft | 104 kts | 109° |
| 2026-05-04 00:16 | 12.19191 | -68.92076 | 619 ft | 0 kts | 299° |
| 2026-05-04 00:16 | 12.19769 | -68.93165 | 1357 ft | 94 kts | 292° |
| 2026-05-04 00:17 | 12.19824 | -68.93721 | 1362 ft | 169 kts | 274° |
| 2026-05-04 00:17 | 12.19929 | -68.95119 | 833 ft | 186 kts | 274° |
| 2026-05-04 00:17 | 12.19943 | -68.96197 | 1009 ft | 129 kts | 270° |
| 2026-05-04 00:17 | 12.19956 | -68.97084 | 756 ft | 121 kts | 260° |
| 2026-05-04 00:18 | 12.19402 | -68.97559 | 423 ft | 106 kts | 158° |
| 2026-05-04 00:18 | 12.19111 | -68.97016 | 143 ft | 86 kts | 95° |
| 2026-05-04 00:18 | 12.19001 | -68.96475 | 41 ft | 67 kts | 100° |
| 2026-05-04 00:18 | 12.18913 | -68.96090 | 42 ft | 45 kts | 105° |
| 2026-05-04 00:19 | 12.18611 | -68.96275 | 37 ft | 0 kts | 107° |